Fetters Hot Springs, California
Current Conditions -  °F | °C
As of 8:35 PM on Friday 19 Dec 2014 (Local Time) from KDVO Reporting Station
Haze Haze  
Wind Chill: 54°   Ceiling: NA
Heat Index: 54°   Visibility: 5mi
Dew Point: 54°   Wind: 3mph
Humidity: 100%   Direction: 180°S
Pressure: 30.14"   Gusts: NA
Location:  38.3176°N, 122.485°W
Report Text: KDVO 200435Z AUTO 18003KT 5SM BR 12/12 A3014 RMK AO2
Loading
Personal Weather Stations






























Interactive Weather Map New forecast layout! Learn more

10-Day Weather Forecast

Advertisements
Track Severe Weather on mobile